Terminal Aerodrome Forecast
Issued by NWS Jacksonville, FL

Home | Current Version | Previous Version | Text Only | Print | Product List | Glossary On
Versions: 1 2 3 4 5 6 7 8 9 10 11 12 13 14 15 16 17 18 19 20 21 22 23 24 25
138
FTUS42 KJAX 251232 AAA
TAFGNV
TAF AMD
KGNV 251232Z 2513/2612 25006KT 3SM BR OVC002
     FM251400 26011KT P6SM SCT030
     FM260300 32010KT P6SM SKC=

USA.gov is the U.S. government's official web portal to all federal, state and local government web resources and services.